Time;durP1;ratioP1;P1;durP2;ratioP2;P2;SDS_P1;SDS_P2;PMS_P1;PMS_P2;Temp;Humidity;BMP_temperature;BMP_pressure;BME280_temperature;BME280_humidity;BME280_pressure;Samples;Min_cycle;Max_cycle;Signal;HPM_P1;HPM_P2
2023/08/16 00:00:34;;;;;;;;;;;;;;;27.67;100.00;99753.16;5032119;28;19921;-74
2023/08/16 00:03:00;;;;;;;;;;;;;;;27.66;100.00;99752.34;5031881;28;19921;-75
2023/08/16 00:05:25;;;;;;;;;;;;;;;27.65;100.00;99763.41;5031782;28;19925;-74
2023/08/16 00:07:50;;;;;;;;;;;;;;;27.61;100.00;99756.88;5031845;28;20002;-74
2023/08/16 00:10:16;;;;;;;;;;;;;;;27.54;100.00;99767.06;5031927;28;20285;-74
2023/08/16 00:12:41;;;;;;;;;;;;;;;27.54;100.00;99767.88;5032008;28;20274;-75
2023/08/16 00:15:07;;;;;;;;;;;;;;;27.53;100.00;99758.09;5031740;28;19951;-74
2023/08/16 00:17:32;;;;;;;;;;;;;;;27.47;100.00;99767.19;5031436;28;19944;-74
2023/08/16 00:19:58;;;;;;;;;;;;;;;27.47;100.00;99777.22;5031875;28;19925;-74
2023/08/16 00:22:23;;;;;;;;;;;;;;;27.40;100.00;99773.84;5031567;28;20011;-74
2023/08/16 00:24:48;;;;;;;;;;;;;;;27.37;100.00;99768.94;5031446;28;19921;-74
2023/08/16 00:27:14;;;;;;;;;;;;;;;27.40;100.00;99773.84;5031331;28;19991;-74
2023/08/16 00:29:39;;;;;;;;;;;;;;;27.38;100.00;99774.09;5031756;28;19917;-73
2023/08/16 00:32:07;;;;;;;;;;;;;;;27.35;100.00;99771.88;5031681;28;20431;-74
2023/08/16 00:34:32;;;;;;;;;;;;;;;27.35;100.00;99781.88;5031448;28;19921;-75
2023/08/16 00:36:58;;;;;;;;;;;;;;;27.30;100.00;99783.47;5055970;28;20257;-73
2023/08/16 00:39:23;;;;;;;;;;;;;;;27.30;100.00;99778.03;5031214;28;19957;-74
2023/08/16 00:41:48;;;;;;;;;;;;;;;27.29;100.00;99773.69;5031564;28;19921;-74
2023/08/16 00:44:14;;;;;;;;;;;;;;;27.30;100.00;99783.47;5031228;28;20741;-74
2023/08/16 00:46:39;;;;;;;;;;;;;;;27.27;100.00;99775.00;5030225;28;19929;-73
2023/08/16 00:49:04;;;;;;;;;;;;;;;27.26;100.00;99776.91;5029788;28;19925;-74
2023/08/16 00:51:30;;;;;;;;;;;;;;;27.25;100.00;99780.66;5031165;28;19925;-73
2023/08/16 00:53:55;;;;;;;;;;;;;;;27.24;100.00;99784.44;5063323;28;20381;-74
2023/08/16 00:56:21;;;;;;;;;;;;;;;27.21;100.00;99779.53;5029477;28;19928;-74
2023/08/16 00:58:46;;;;;;;;;;;;;;;27.16;100.00;99782.13;5029071;28;19929;-73
2023/08/16 01:01:12;;;;;;;;;;;;;;;27.18;100.00;99785.41;5028862;28;19925;-74
2023/08/16 01:03:38;;;;;;;;;;;;;;;27.19;100.00;99778.13;5057123;28;19944;-73
2023/08/16 01:06:04;;;;;;;;;;;;;;;27.16;100.00;99782.13;5030995;28;19921;-73
2023/08/16 01:08:30;;;;;;;;;;;;;;;27.16;100.00;99782.13;5031514;28;19955;-73
2023/08/16 01:11:04;;;;;;;;;;;;;;;27.13;100.00;99785.34;5031522;28;20328;-75
2023/08/16 01:13:52;;;;;;;;;;;;;;;27.06;100.00;99779.25;5028519;28;19932;-73
2023/08/16 01:16:19;;;;;;;;;;;;;;;27.06;100.00;99792.78;5023792;28;19996;-74
2023/08/16 01:18:44;;;;;;;;;;;;;;;26.99;100.00;99780.47;5031733;28;21322;-74
2023/08/16 01:21:13;;;;;;;;;;;;;;;26.99;100.00;99778.56;5030716;28;20300;-74
2023/08/16 01:23:48;;;;;;;;;;;;;;;26.99;100.00;99786.69;5013382;28;19925;-73
2023/08/16 01:26:29;;;;;;;;;;;;;;;26.98;100.00;99782.34;5031238;28;20294;-74
2023/08/16 01:28:56;;;;;;;;;;;;;;;26.98;100.00;99790.47;5026578;28;19963;-74
2023/08/16 01:31:22;;;;;;;;;;;;;;;26.96;100.00;99784.50;5029988;28;19921;-74
2023/08/16 01:33:47;;;;;;;;;;;;;;;26.96;100.00;99780.97;5031504;28;19921;-74
2023/08/16 01:36:12;;;;;;;;;;;;;;;26.85;100.00;99793.47;5030696;28;19921;-74
2023/08/16 01:38:38;;;;;;;;;;;;;;;26.75;100.00;99785.13;5054313;28;19995;-74
2023/08/16 01:41:20;;;;;;;;;;;;;;;26.77;100.00;99788.44;5030931;28;19921;-74
2023/08/16 01:43:46;;;;;;;;;;;;;;;26.78;100.00;99779.25;5029299;28;20451;-74
2023/08/16 01:46:13;;;;;;;;;;;;;;;26.76;100.00;99778.66;5029193;28;20365;-74
2023/08/16 01:48:38;;;;;;;;;;;;;;;26.75;100.00;99777.03;5031091;28;19933;-74
2023/08/16 01:51:05;;;;;;;;;;;;;;;26.72;100.00;99777.53;5029374;28;19967;-74
2023/08/16 01:53:32;;;;;;;;;;;;;;;26.69;100.00;99781.53;5030157;28;19925;-74
2023/08/16 01:55:59;;;;;;;;;;;;;;;26.48;100.00;99787.63;5030968;28;19921;-74
2023/08/16 01:58:24;;;;;;;;;;;;;;;26.28;100.00;99788.00;5030474;28;19943;-74
2023/08/16 02:00:50;;;;;;;;;;;;;;;26.25;100.00;99796.63;5029570;28;19921;-73
2023/08/16 02:03:16;;;;;;;;;;;;;;;26.05;100.00;99802.38;5029991;28;20015;-72
2023/08/16 02:05:41;;;;;;;;;;;;;;;25.91;100.00;99805.59;5022100;28;19929;-74
2023/08/16 02:08:07;;;;;;;;;;;;;;;25.87;100.00;99794.41;5032309;28;20416;-73
2023/08/16 02:10:32;;;;;;;;;;;;;;;25.83;100.00;99798.66;5033875;28;19927;-73
2023/08/16 02:12:57;;;;;;;;;;;;;;;25.95;100.00;99801.34;5034427;28;19931;-73
2023/08/16 02:15:23;;;;;;;;;;;;;;;26.01;100.00;99800.41;5032378;28;20705;-73
2023/08/16 02:17:48;;;;;;;;;;;;;;;26.07;100.00;99799.44;5032874;28;19928;-74
2023/08/16 02:20:14;;;;;;;;;;;;;;;25.99;100.00;99797.91;5032536;28;19925;-73
2023/08/16 02:22:39;;;;;;;;;;;;;;;25.87;100.00;99805.22;5032937;28;19928;-73
2023/08/16 02:25:05;;;;;;;;;;;;;;;25.90;100.00;99804.75;5032210;28;19932;-73
2023/08/16 02:27:32;;;;;;;;;;;;;;;25.97;100.00;99794.66;5033931;28;20441;-74
2023/08/16 02:29:57;;;;;;;;;;;;;;;26.05;100.00;99785.31;5033923;28;20474;-72
2023/08/16 02:32:23;;;;;;;;;;;;;;;26.10;100.00;99783.56;5033656;28;19921;-73
2023/08/16 02:34:48;;;;;;;;;;;;;;;26.16;100.00;99779.06;5034098;28;19921;-73
2023/08/16 02:37:14;;;;;;;;;;;;;;;26.20;100.00;99772.16;5032395;28;19940;-72
2023/08/16 02:39:39;;;;;;;;;;;;;;;26.20;100.00;99772.16;5064631;28;19921;-72
2023/08/16 02:42:05;;;;;;;;;;;;;;;26.19;100.00;99770.50;5032357;28;20016;-72
2023/08/16 02:44:30;;;;;;;;;;;;;;;26.17;100.00;99774.50;5032513;28;19931;-73
2023/08/16 02:46:55;;;;;;;;;;;;;;;26.20;100.00;99777.56;5032416;28;19951;-73
2023/08/16 02:49:22;;;;;;;;;;;;;;;26.19;100.00;99786.72;5032242;28;19968;-72
2023/08/16 02:51:48;;;;;;;;;;;;;;;26.16;100.00;99789.88;5033670;28;20450;-73
2023/08/16 02:54:14;;;;;;;;;;;;;;;26.15;100.00;99796.38;5047279;28;20346;-73
2023/08/16 02:56:39;;;;;;;;;;;;;;;26.20;100.00;99788.38;5033860;28;19921;-73
2023/08/16 02:59:09;;;;;;;;;;;;;;;26.21;100.00;99784.63;5033327;28;20373;-72
2023/08/16 03:01:34;;;;;;;;;;;;;;;26.27;100.00;99788.28;5034140;28;19953;-73
2023/08/16 03:03:59;;;;;;;;;;;;;;;26.22;100.00;99799.75;5034039;28;20026;-72
2023/08/16 03:06:25;;;;;;;;;;;;;;;26.14;100.00;99802.84;5031856;28;19983;-73
2023/08/16 03:08:50;;;;;;;;;;;;;;;26.01;100.00;99800.41;5033323;28;19931;-73
2023/08/16 03:11:15;;;;;;;;;;;;;;;25.77;100.00;99812.28;5032559;28;19921;-73
2023/08/16 03:13:41;;;;;;;;;;;;;;;25.54;100.00;99805.78;5033191;28;19952;-74
2023/08/16 03:16:06;;;;;;;;;;;;;;;25.63;100.00;99809.78;5032887;28;20011;-72
2023/08/16 03:18:31;;;;;;;;;;;;;;;25.70;100.00;99798.88;5031434;28;19971;-73
2023/08/16 03:20:57;;;;;;;;;;;;;;;25.74;100.00;99804.66;5032820;28;19921;-72
2023/08/16 03:23:22;;;;;;;;;;;;;;;25.77;100.00;99796.06;5030994;28;19921;-73
2023/08/16 03:25:48;;;;;;;;;;;;;;;25.76;100.00;99799.81;5032883;28;19929;-76
2023/08/16 03:28:13;;;;;;;;;;;;;;;25.76;100.00;99797.13;5031148;28;19971;-73
2023/08/16 03:30:40;;;;;;;;;;;;;;;25.67;100.00;99805.59;5043657;28;20289;-73
2023/08/16 03:33:06;;;;;;;;;;;;;;;25.75;100.00;99801.69;5032482;28;19932;-74
2023/08/16 03:35:32;;;;;;;;;;;;;;;25.68;100.00;99804.50;5031023;28;19956;-74
2023/08/16 03:37:57;;;;;;;;;;;;;;;25.66;100.00;99801.25;5033117;28;19972;-75
2023/08/16 03:40:24;;;;;;;;;;;;;;;25.70;100.00;99806.97;5030724;28;19975;-74
2023/08/16 03:42:49;;;;;;;;;;;;;;;25.70;100.00;99804.28;5032725;28;19920;-74
2023/08/16 03:45:14;;;;;;;;;;;;;;;25.58;100.00;99812.38;5032168;28;19936;-75
2023/08/16 03:47:40;;;;;;;;;;;;;;;25.35;100.00;99812.31;5031436;28;19921;-75
2023/08/16 03:50:05;;;;;;;;;;;;;;;25.20;100.00;99811.97;5031052;28;19921;-74
2023/08/16 03:52:31;;;;;;;;;;;;;;;25.00;100.00;99823.03;5032472;28;20004;-75
2023/08/16 03:54:56;;;;;;;;;;;;;;;25.04;100.00;99823.41;5032047;28;19921;-74
2023/08/16 03:57:22;;;;;;;;;;;;;;;25.14;100.00;99810.19;5032118;28;19921;-74
2023/08/16 03:59:49;;;;;;;;;;;;;;;25.03;100.00;99813.69;5030586;28;19960;-73
2023/08/16 04:02:16;;;;;;;;;;;;;;;24.99;100.00;99815.16;5032170;28;19933;-74
2023/08/16 04:04:41;;;;;;;;;;;;;;;25.07;100.00;99814.84;5030999;28;20527;-74
2023/08/16 04:07:06;;;;;;;;;;;;;;;25.13;100.00;99830.97;5031944;28;20004;-74
2023/08/16 04:09:33;;;;;;;;;;;;;;;25.14;100.00;99829.09;5031715;28;19929;-74
2023/08/16 04:11:58;;;;;;;;;;;;;;;25.19;100.00;99830.03;5032066;28;20376;-74
2023/08/16 04:14:25;;;;;;;;;;;;;;;25.20;100.00;99825.47;5031442;28;20324;-73
2023/08/16 04:16:50;;;;;;;;;;;;;;;25.18;100.00;99827.56;5032223;28;19949;-73
2023/08/16 04:19:15;;;;;;;;;;;;;;;25.12;100.00;99825.78;5056009;28;19929;-74
2023/08/16 04:21:41;;;;;;;;;;;;;;;25.01;100.00;99830.09;5030614;28;20378;-73
2023/08/16 04:24:06;;;;;;;;;;;;;;;25.01;100.00;99843.59;5030143;28;19921;-75
2023/08/16 04:26:32;;;;;;;;;;;;;;;25.04;100.00;99839.59;5030578;28;20008;-74
2023/08/16 04:28:57;;;;;;;;;;;;;;;25.00;100.00;99849.22;5031896;28;19921;-74
2023/08/16 04:31:23;;;;;;;;;;;;;;;25.02;100.00;99855.22;5029287;28;20337;-74
2023/08/16 04:33:49;;;;;;;;;;;;;;;25.01;100.00;99858.97;5030608;28;19933;-74
2023/08/16 04:36:15;;;;;;;;;;;;;;;25.09;100.00;99853.25;5030069;28;20979;-74
2023/08/16 04:38:41;;;;;;;;;;;;;;;25.15;100.00;99855.03;5042582;28;19921;-74
2023/08/16 04:41:07;;;;;;;;;;;;;;;25.18;100.00;99857.25;5030094;28;19943;-74
2023/08/16 04:43:34;;;;;;;;;;;;;;;25.19;100.00;99862.44;5031525;28;19928;-74
2023/08/16 04:45:59;;;;;;;;;;;;;;;25.15;100.00;99865.84;5031528;28;19921;-74
2023/08/16 04:48:25;;;;;;;;;;;;;;;25.20;100.00;99864.09;5029803;28;19921;-74
2023/08/16 04:50:51;;;;;;;;;;;;;;;25.26;100.00;99862.34;5030313;28;19925;-74
2023/08/16 04:53:17;;;;;;;;;;;;;;;25.26;100.00;99865.06;5030985;28;20255;-74
2023/08/16 04:55:42;;;;;;;;;;;;;;;25.18;100.00;99865.38;5030054;28;19921;-74
2023/08/16 04:58:08;;;;;;;;;;;;;;;25.14;100.00;99869.59;5054807;28;19977;-73
2023/08/16 05:00:38;;;;;;;;;;;;;;;25.22;100.00;99869.25;5029665;28;20010;-72
2023/08/16 05:03:04;;;;;;;;;;;;;;;25.10;100.00;99873.78;5030216;28;20015;-73
2023/08/16 05:05:31;;;;;;;;;;;;;;;25.18;100.00;99876.16;5029633;28;19924;-72
2023/08/16 05:07:56;;;;;;;;;;;;;;;25.27;100.00;99866.69;5031352;28;20297;-74
2023/08/16 05:10:22;;;;;;;;;;;;;;;25.29;100.00;99880.78;5029500;28;19921;-72
2023/08/16 05:12:47;;;;;;;;;;;;;;;25.27;100.00;99869.41;5059190;28;19965;-73
2023/08/16 05:15:12;;;;;;;;;;;;;;;25.18;100.00;99871.59;5029364;28;19921;-73
2023/08/16 05:17:38;;;;;;;;;;;;;;;25.22;100.00;99856.56;5029527;28;20011;-74
2023/08/16 05:20:04;;;;;;;;;;;;;;;25.19;100.00;99856.22;5029897;28;19998;-73
2023/08/16 05:22:29;;;;;;;;;;;;;;;25.20;100.00;99853.28;5030921;28;19929;-71
2023/08/16 05:24:55;;;;;;;;;;;;;;;25.25;100.00;99858.81;5030312;28;19975;-72
2023/08/16 05:27:20;;;;;;;;;;;;;;;25.27;100.00;99853.19;5031005;28;19975;-73
2023/08/16 05:29:46;;;;;;;;;;;;;;;25.27;100.00;99859.41;5030977;28;19917;-72
2023/08/16 05:32:12;;;;;;;;;;;;;;;25.26;100.00;99859.66;5030621;28;20293;-73
2023/08/16 05:34:37;;;;;;;;;;;;;;;25.20;100.00;99855.16;5030510;28;19921;-74
2023/08/16 05:37:05;;;;;;;;;;;;;;;25.23;100.00;99847.41;5030988;28;19943;-72
2023/08/16 05:39:31;;;;;;;;;;;;;;;25.29;100.00;99845.66;5029270;28;19974;-73
2023/08/16 05:41:56;;;;;;;;;;;;;;;25.34;100.00;99859.28;5031247;28;20294;-73
2023/08/16 05:44:21;;;;;;;;;;;;;;;25.32;100.00;99856.03;5034428;28;19921;-73
2023/08/16 05:46:47;;;;;;;;;;;;;;;25.40;100.00;99858.38;5034759;28;20344;-73
2023/08/16 05:49:12;;;;;;;;;;;;;;;25.43;100.00;99862.50;5033657;28;19939;-73
2023/08/16 05:51:37;;;;;;;;;;;;;;;25.38;100.00;99863.19;5034546;28;19964;-73
2023/08/16 05:54:03;;;;;;;;;;;;;;;25.35;100.00;99866.34;5034381;28;19967;-73
2023/08/16 05:56:28;;;;;;;;;;;;;;;25.36;100.00;99862.59;5034135;28;20397;-72
2023/08/16 05:58:54;;;;;;;;;;;;;;;25.41;100.00;99870.84;5034444;28;19929;-72
2023/08/16 06:01:19;;;;;;;;;;;;;;;25.43;100.00;99868.72;4337173;28;10000844;-71
2023/08/16 06:03:45;;;;;;;;;;;;;;;25.49;100.00;99865.09;5031554;28;19975;-72
2023/08/16 06:06:10;;;;;;;;;;;;;;;25.47;100.00;99867.19;5029948;28;20404;-73
2023/08/16 06:08:35;;;;;;;;;;;;;;;25.49;100.00;99872.38;5033220;28;20457;-72
2023/08/16 06:11:02;;;;;;;;;;;;;;;25.49;100.00;99873.22;5031998;28;19944;-71
2023/08/16 06:13:27;;;;;;;;;;;;;;;25.41;100.00;99876.22;5031328;28;19921;-73
2023/08/16 06:15:52;;;;;;;;;;;;;;;25.52;100.00;99878.13;5032074;28;19928;-72
2023/08/16 06:18:18;;;;;;;;;;;;;;;25.53;100.00;99877.09;5031460;28;19952;-74
2023/08/16 06:20:43;;;;;;;;;;;;;;;25.63;100.00;99882.75;5031507;28;20352;-74
2023/08/16 06:23:09;;;;;;;;;;;;;;;25.67;100.00;99881.25;5031400;28;19983;-74
2023/08/16 06:25:35;;;;;;;;;;;;;;;25.64;100.00;99881.72;4682296;28;9999977;-71
2023/08/16 06:28:01;;;;;;;;;;;;;;;25.60;100.00;99871.59;5031944;28;19956;-73
2023/08/16 06:30:26;;;;;;;;;;;;;;;25.56;100.00;99882.06;5033775;28;19925;-74
2023/08/16 06:32:51;;;;;;;;;;;;;;;25.62;100.00;99877.63;5033939;28;19921;-71
2023/08/16 06:35:16;;;;;;;;;;;;;;;25.67;100.00;99878.56;5033687;28;19929;-75
2023/08/16 06:37:44;;;;;;;;;;;;;;;25.68;100.00;99871.28;5034166;28;19922;-79
2023/08/16 06:40:10;;;;;;;;;;;;;;;25.68;100.00;99877.47;5031828;28;19970;-78
2023/08/16 06:42:35;;;;;;;;;;;;;;;25.69;100.00;99884.53;4681777;28;10000441;-77
2023/08/16 06:45:01;;;;;;;;;;;;;;;25.72;100.00;99880.56;5030349;28;19932;-81
2023/08/16 06:47:26;;;;;;;;;;;;;;;25.64;100.00;99881.72;5054978;28;19925;-83
2023/08/16 06:49:52;;;;;;;;;;;;;;;25.74;100.00;99883.03;5030758;28;19932;-84
2023/08/16 06:52:17;;;;;;;;;;;;;;;25.84;100.00;99875.16;5030835;28;20273;-79
2023/08/16 06:54:43;;;;;;;;;;;;;;;25.89;100.00;99883.38;4683041;28;10000169;-80
2023/08/16 06:57:09;;;;;;;;;;;;;;;25.86;100.00;99878.47;5029837;28;20292;-80
2023/08/16 06:59:37;;;;;;;;;;;;;;;25.74;100.00;99874.94;5037996;28;20345;-83
2023/08/16 07:02:02;;;;;;;;;;;;;;;25.85;100.00;99871.41;5034095;28;19920;-82
2023/08/16 07:04:27;;;;;;;;;;;;;;;25.95;100.00;99877.88;5032699;28;20385;-82
2023/08/16 07:06:54;;;;;;;;;;;;;;;26.05;100.00;99878.09;5033465;28;19928;-81
2023/08/16 07:09:20;;;;;;;;;;;;;;;26.18;100.00;99882.44;5032821;28;19921;-82
2023/08/16 07:11:45;;;;;;;;;;;;;;;26.26;100.00;99873.19;5033785;28;19929;-82
2023/08/16 07:14:11;;;;;;;;;;;;;;;26.31;100.00;99876.84;5033644;28;19921;-82
2023/08/16 07:16:38;;;;;;;;;;;;;;;26.38;100.00;99876.72;5034316;28;19921;-80
2023/08/16 07:19:04;;;;;;;;;;;;;;;26.40;100.00;99878.09;5036231;28;19921;-88
2023/08/16 07:21:29;;;;;;;;;;;;;;;26.44;100.00;99864.94;5033821;28;19929;-75
2023/08/16 07:23:55;;;;;;;;;;;;;;;26.54;100.00;99872.44;5032503;28;19921;-74
2023/08/16 07:26:20;;;;;;;;;;;;;;;26.59;100.00;99872.53;5031370;28;19927;-76
2023/08/16 07:28:45;;;;;;;;;;;;;;;26.59;100.00;99883.34;5032784;28;19935;-74
2023/08/16 07:31:11;;;;;;;;;;;;;;;26.66;100.00;99874.06;5032535;28;19956;-76
2023/08/16 07:33:36;;;;;;;;;;;;;;;26.74;100.00;99880.97;5032594;28;20389;-77
2023/08/16 07:36:02;;;;;;;;;;;;;;;26.82;100.00;99877.88;5032305;28;19955;-74
2023/08/16 07:38:28;;;;;;;;;;;;;;;26.77;100.00;99875.06;5031993;28;19932;-76
2023/08/16 07:40:54;;;;;;;;;;;;;;;26.72;100.00;99883.09;5031729;28;20386;-74
2023/08/16 07:43:19;;;;;;;;;;;;;;;26.79;100.00;99883.78;5031762;28;19983;-77
2023/08/16 07:45:50;;;;;;;;;;;;;;;26.85;100.00;99882.81;5032436;28;19921;-76
2023/08/16 07:48:18;;;;;;;;;;;;;;;26.83;100.00;99880.34;5031839;28;20400;-81
2023/08/16 07:50:45;;;;;;;;;;;;;;;26.89;100.00;99875.88;5032176;28;19927;-75
2023/08/16 07:53:11;;;;;;;;;;;;;;;26.93;100.00;99885.16;5031658;28;19921;-76
2023/08/16 07:55:36;;;;;;;;;;;;;;;26.83;100.00;99884.94;5031876;28;19925;-75
2023/08/16 07:58:02;;;;;;;;;;;;;;;26.74;100.00;99886.41;5031873;28;20341;-77
2023/08/16 08:00:29;;;;;;;;;;;;;;;26.76;100.00;99885.06;5032006;28;20007;-77
2023/08/16 08:02:54;;;;;;;;;;;;;;;26.87;100.00;99886.09;5032432;28;19925;-77
2023/08/16 08:05:20;;;;;;;;;;;;;;;26.89;100.00;99884.00;5031539;28;19921;-78
2023/08/16 08:07:47;;;;;;;;;;;;;;;26.91;100.00;99887.31;5031874;28;20035;-78
2023/08/16 08:10:13;;;;;;;;;;;;;;;27.07;100.00;99889.25;5031521;28;20021;-76
2023/08/16 08:12:38;;;;;;;;;;;;;;;27.13;100.00;99882.84;5031817;28;19925;-76
2023/08/16 08:15:04;;;;;;;;;;;;;;;27.13;100.00;99877.44;5031890;28;19917;-77
2023/08/16 08:17:29;;;;;;;;;;;;;;;27.23;100.00;99880.31;5029751;28;20012;-77
2023/08/16 08:19:54;;;;;;;;;;;;;;;27.33;100.00;99879.72;5032898;28;19921;-81
2023/08/16 08:22:20;;;;;;;;;;;;;;;27.44;100.00;99880.69;5032757;28;19917;-76
2023/08/16 08:24:45;;;;;;;;;;;;;;;27.54;100.00;99875.47;5031867;28;19976;-77
2023/08/16 08:27:11;;;;;;;;;;;;;;;27.62;100.00;99883.22;5031254;28;19921;-76
2023/08/16 08:29:38;;;;;;;;;;;;;;;27.67;100.00;99872.44;5026917;28;19929;-76
2023/08/16 08:32:03;;;;;;;;;;;;;;;27.76;100.00;99873.66;5031060;28;19928;-75
2023/08/16 08:34:28;;;;;;;;;;;;;;;27.83;100.00;99874.31;5030908;28;19933;-76
2023/08/16 08:36:54;;;;;;;;;;;;;;;27.89;100.00;99873.34;5031764;28;19921;-77
2023/08/16 08:39:20;;;;;;;;;;;;;;;27.93;100.00;99868.22;5029751;28;19921;-75
2023/08/16 08:41:48;;;;;;;;;;;;;;;27.96;100.00;99874.00;5031463;28;20451;-81
2023/08/16 08:44:17;;;;;;;;;;;;;;;28.03;100.00;99874.66;5031390;28;20357;-77
2023/08/16 08:46:43;;;;;;;;;;;;;;;28.08;100.00;99877.44;5031231;28;19921;-78
2023/08/16 08:49:09;;;;;;;;;;;;;;;28.15;100.00;99876.47;5029780;28;20325;-77
2023/08/16 08:51:35;;;;;;;;;;;;;;;28.15;100.00;99877.28;5029741;28;19932;-78
2023/08/16 08:54:00;;;;;;;;;;;;;;;28.19;100.00;99877.59;5031251;28;19921;-79
2023/08/16 08:56:27;;;;;;;;;;;;;;;28.23;100.00;99874.13;5030362;28;19932;-78
2023/08/16 08:58:52;;;;;;;;;;;;;;;28.25;100.00;99872.00;5030802;28;20012;-77
2023/08/16 09:01:18;;;;;;;;;;;;;;;28.27;100.00;99871.75;5030884;28;20008;-78
2023/08/16 09:03:45;;;;;;;;;;;;;;;28.28;100.00;99870.66;5031130;28;19995;-79
2023/08/16 09:06:11;;;;;;;;;;;;;;;28.32;100.00;99871.81;5058683;28;19928;-78
2023/08/16 09:08:36;;;;;;;;;;;;;;;28.37;100.00;99871.88;5031297;28;19928;-80
2023/08/16 09:11:02;;;;;;;;;;;;;;;28.43;100.00;99870.88;5030509;28;19921;-77
2023/08/16 09:13:28;;;;;;;;;;;;;;;28.49;100.00;99872.59;5030797;28;19921;-77
2023/08/16 09:15:53;;;;;;;;;;;;;;;28.54;100.00;99875.38;5030889;28;20373;-78
2023/08/16 09:18:21;;;;;;;;;;;;;;;28.58;100.00;99871.06;5030019;28;20460;-77
2023/08/16 09:20:46;;;;;;;;;;;;;;;28.63;100.00;99871.13;5030721;28;19929;-78
2023/08/16 09:23:15;;;;;;;;;;;;;;;28.65;100.00;99866.28;5030674;28;20391;-79
2023/08/16 09:25:41;;;;;;;;;;;;;;;28.69;100.00;99872.00;5030449;28;20277;-77
2023/08/16 09:28:09;;;;;;;;;;;;;;;28.73;100.00;99863.16;5030460;28;19927;-74
2023/08/16 09:30:35;;;;;;;;;;;;;;;28.78;100.00;99863.22;5030576;28;19921;-75
2023/08/16 09:33:00;;;;;;;;;;;;;;;28.78;100.00;99859.66;5030691;28;19921;-76
2023/08/16 09:35:29;;;;;;;;;;;;;;;28.83;100.00;99854.28;5030539;28;19932;-76
2023/08/16 09:37:55;;;;;;;;;;;;;;;28.87;100.00;99848.09;5030710;28;20441;-76
2023/08/16 09:40:20;;;;;;;;;;;;;;;28.92;100.00;99845.41;5029934;28;20012;-75
2023/08/16 09:42:46;;;;;;;;;;;;;;;28.99;100.00;99844.41;5030667;28;20377;-74
2023/08/16 09:45:11;;;;;;;;;;;;;;;29.05;100.00;99843.38;5029819;28;19943;-75
2023/08/16 09:47:43;;;;;;;;;;;;;;;29.08;100.00;99842.88;5030319;28;20321;-75
2023/08/16 09:50:09;;;;;;;;;;;;;;;29.13;100.00;99842.91;5030045;28;19917;-74
2023/08/16 09:52:37;;;;;;;;;;;;;;;29.18;100.00;99840.25;5030468;28;20024;-73
2023/08/16 09:55:02;;;;;;;;;;;;;;;29.23;100.00;99840.28;5029950;28;19992;-73
2023/08/16 09:57:28;;;;;;;;;;;;;;;29.29;100.00;99834.66;5030299;28;19949;-74
2023/08/16 09:59:55;;;;;;;;;;;;;;;29.34;100.00;99830.34;5030133;28;19976;-74
2023/08/16 10:02:20;;;;;;;;;;;;;;;29.41;100.00;99845.38;5029941;28;19928;-74
2023/08/16 10:04:46;;;;;;;;;;;;;;;29.44;100.00;99831.28;5030256;28;19929;-74
2023/08/16 10:07:12;;;;;;;;;;;;;;;29.47;100.00;99833.47;5030312;28;19921;-75
2023/08/16 10:09:39;;;;;;;;;;;;;;;29.47;100.00;99819.88;5027238;28;19921;-75
2023/08/16 10:12:06;;;;;;;;;;;;;;;29.53;100.00;99829.72;5030128;28;19921;-76
2023/08/16 10:14:33;;;;;;;;;;;;;;;29.53;100.00;99818.84;5029957;28;19921;-76
2023/08/16 10:17:00;;;;;;;;;;;;;;;29.57;100.00;99819.94;5028728;28;19970;-74
2023/08/16 10:19:28;;;;;;;;;;;;;;;29.62;100.00;99817.28;5028578;28;20389;-75
2023/08/16 10:21:53;;;;;;;;;;;;;;;29.67;100.00;99808.34;5030179;28;20004;-74
2023/08/16 10:24:20;;;;;;;;;;;;;;;29.74;100.00;99808.94;5029913;28;20023;-75
2023/08/16 10:26:46;;;;;;;;;;;;;;;29.77;100.00;99796.72;5029777;28;20292;-75
2023/08/16 10:29:13;;;;;;;;;;;;;;;29.79;100.00;99794.56;5030343;28;20020;-76
2023/08/16 10:31:41;;;;;;;;;;;;;;;29.80;100.00;99802.47;5033518;28;19925;-76
2023/08/16 10:34:07;;;;;;;;;;;;;;;29.80;100.00;99802.47;5033500;28;19925;-75
2023/08/16 10:36:33;;;;;;;;;;;;;;;29.80;100.00;99791.59;5033321;28;19979;-75
2023/08/16 10:38:59;;;;;;;;;;;;;;;29.83;100.00;99788.31;5033517;28;19964;-75
2023/08/16 10:41:25;;;;;;;;;;;;;;;29.88;100.00;99784.81;5032968;28;19932;-75
2023/08/16 10:43:51;;;;;;;;;;;;;;;29.92;100.00;99785.97;5033583;28;19929;-75
2023/08/16 10:46:30;;;;;;;;;;;;;;;29.96;100.00;99781.63;5032929;28;19921;-76
2023/08/16 10:49:00;;;;;;;;;;;;;;;30.01;98.83;99781.66;5029968;28;19955;-76
2023/08/16 10:51:25;;;;;;;;;;;;;;;30.04;98.65;99764.81;5029083;28;19978;-75
2023/08/16 10:53:50;;;;;;;;;;;;;;;30.09;98.75;99773.00;5033471;28;19925;-76
2023/08/16 10:56:18;;;;;;;;;;;;;;;30.15;98.65;99777.38;5032794;28;19975;-76
2023/08/16 10:58:50;;;;;;;;;;;;;;;30.23;96.94;99762.41;5033263;28;19921;-76
2023/08/16 11:01:16;;;;;;;;;;;;;;;30.33;96.43;99757.84;5032632;28;20587;-76
2023/08/16 11:03:43;;;;;;;;;;;;;;;30.50;94.57;99763.94;5033022;28;19944;-75
2023/08/16 11:06:12;;;;;;;;;;;;;;;30.63;94.09;99761.78;5032504;28;20011;-76
2023/08/16 11:08:41;;;;;;;;;;;;;;;30.86;93.19;99766.72;5029683;28;19925;-75
2023/08/16 11:11:07;;;;;;;;;;;;;;;30.99;90.53;99758.00;5030289;28;20460;-75
2023/08/16 11:13:32;;;;;;;;;;;;;;;31.03;91.20;99753.66;5031039;28;20015;-76
2023/08/16 11:15:58;;;;;;;;;;;;;;;31.08;90.06;99750.16;5032211;28;19983;-75
2023/08/16 11:18:30;;;;;;;;;;;;;;;31.09;89.95;99749.88;5032416;28;20285;-76
2023/08/16 11:20:59;;;;;;;;;;;;;;;31.10;89.91;99746.06;5033074;28;19928;-75
2023/08/16 11:23:45;;;;;;;;;;;;;;;31.13;89.31;99740.06;5027531;28;19925;-75
2023/08/16 11:26:10;;;;;;;;;;;;;;;31.17;88.70;99732.97;5031020;28;20424;-76
2023/08/16 11:28:37;;;;;;;;;;;;;;;31.20;88.47;99735.16;5031387;28;19921;-76
2023/08/16 11:31:04;;;;;;;;;;;;;;;31.26;87.99;99742.25;5031676;28;19944;-75
2023/08/16 11:33:37;;;;;;;;;;;;;;;31.33;87.08;99730.25;5032127;28;19929;-75
2023/08/16 11:36:04;;;;;;;;;;;;;;;31.39;86.37;99731.88;5031775;28;19925;-75
2023/08/16 11:38:29;;;;;;;;;;;;;;;31.44;86.14;99723.69;5031884;28;19929;-74
2023/08/16 11:40:55;;;;;;;;;;;;;;;31.53;86.06;99722.00;5032512;28;19975;-74
2023/08/16 11:43:27;;;;;;;;;;;;;;;31.58;85.48;99716.53;5032005;28;19990;-75
2023/08/16 11:45:53;;;;;;;;;;;;;;;31.64;85.12;99719.00;5028685;28;19925;-74
2023/08/16 11:48:18;;;;;;;;;;;;;;;31.74;84.78;99720.09;5032117;28;19947;-74
2023/08/16 11:50:43;;;;;;;;;;;;;;;31.82;84.69;99716.78;5032391;28;19921;-75
2023/08/16 11:53:09;;;;;;;;;;;;;;;31.89;84.40;99715.41;5032010;28;19936;-75
2023/08/16 11:55:35;;;;;;;;;;;;;;;32.03;82.38;99715.63;5032286;28;19929;-76
2023/08/16 11:58:05;;;;;;;;;;;;;;;32.13;82.04;99709.31;5032456;28;19921;-74
2023/08/16 12:00:31;;;;;;;;;;;;;;;32.25;80.80;99701.63;5032042;28;20032;-73
2023/08/16 12:02:57;;;;;;;;;;;;;;;32.29;79.20;99699.94;5032314;28;19991;-76
2023/08/16 12:05:25;;;;;;;;;;;;;;;32.39;79.12;99694.44;5031754;28;19956;-76
2023/08/16 12:07:54;;;;;;;;;;;;;;;32.50;79.77;99688.63;5031828;28;19921;-75
2023/08/16 12:10:26;;;;;;;;;;;;;;;32.65;78.64;99684.16;5031714;28;19948;-75
2023/08/16 12:12:53;;;;;;;;;;;;;;;32.89;77.68;99682.34;5028230;28;20274;-76
2023/08/16 12:15:23;;;;;;;;;;;;;;;33.12;76.29;99683.53;5031463;28;20253;-75
2023/08/16 12:17:48;;;;;;;;;;;;;;;33.29;75.48;99683.94;5030837;28;19928;-75
2023/08/16 12:20:14;;;;;;;;;;;;;;;33.54;74.27;99677.38;5031470;28;20359;-75
2023/08/16 12:22:39;;;;;;;;;;;;;;;33.78;72.52;99672.75;5031662;28;19922;-75
2023/08/16 12:25:05;;;;;;;;;;;;;;;33.97;72.12;99668.13;5031386;28;19925;-75
2023/08/16 12:27:30;;;;;;;;;;;;;;;34.19;70.46;99666.75;5031770;28;20330;-75
2023/08/16 12:29:55;;;;;;;;;;;;;;;34.40;68.81;99665.38;5031444;28;19969;-75
2023/08/16 12:32:21;;;;;;;;;;;;;;;34.46;67.49;99662.25;5031731;28;20004;-75